Time;durP1;ratioP1;P1;durP2;ratioP2;P2;SDS_P1;SDS_P2;PMS_P1;PMS_P2;Temp;Humidity;BMP_temperature;BMP_pressure;BME280_temperature;BME280_humidity;BME280_pressure;Samples;Min_cycle;Max_cycle;Signal;HPM_P1;HPM_P2
2024/01/21 00:01:31;;;;;;;15.53;7.20;;;-1.50;1.00;;;;;;5036103;28;20252;-88
2024/01/21 00:03:57;;;;;;;10.98;6.90;;;-1.50;1.00;;;;;;5054777;28;20189;-88
2024/01/21 00:06:23;;;;;;;12.50;7.50;;;-1.50;1.00;;;;;;5045587;28;20183;-87
2024/01/21 00:08:49;;;;;;;9.10;6.00;;;-1.50;1.00;;;;;;5044638;28;20582;-88
2024/01/21 00:11:14;;;;;;;9.27;5.93;;;-1.40;1.00;;;;;;5051179;28;20461;-88
2024/01/21 00:13:40;;;;;;;11.53;7.53;;;-1.40;1.00;;;;;;5034744;28;20202;-87
2024/01/21 00:16:05;;;;;;;13.47;8.03;;;-1.40;1.00;;;;;;5048961;28;20188;-87
2024/01/21 00:18:31;;;;;;;9.13;6.50;;;-1.40;1.00;;;;;;5077977;23;20228;-82
2024/01/21 00:20:56;;;;;;;10.80;7.10;;;-1.40;1.00;;;;;;5078540;28;20213;-84
2024/01/21 00:23:22;;;;;;;13.90;8.50;;;-1.40;1.00;;;;;;5076614;28;20679;-84
2024/01/21 00:25:47;;;;;;;14.47;7.63;;;-1.40;1.00;;;;;;5073503;28;20224;-83
2024/01/21 00:28:13;;;;;;;11.83;7.23;;;-1.40;1.00;;;;;;5057179;28;20285;-84
2024/01/21 00:30:38;;;;;;;13.73;8.30;;;-1.40;1.00;;;;;;5043876;28;20504;-83
2024/01/21 00:33:04;;;;;;;12.80;6.47;;;-1.40;1.00;;;;;;5040739;28;20189;-84
2024/01/21 00:35:30;;;;;;;9.93;5.97;;;-1.40;1.00;;;;;;5039729;28;20205;-83
2024/01/21 00:37:55;;;;;;;9.13;7.10;;;-1.40;1.00;;;;;;5053735;28;20205;-84
2024/01/21 00:40:21;;;;;;;13.07;6.30;;;-1.40;1.00;;;;;;5057370;28;20545;-83
2024/01/21 00:42:46;;;;;;;8.80;5.10;;;-1.30;1.00;;;;;;5057378;28;20186;-84
2024/01/21 00:45:12;;;;;;;8.23;5.87;;;-1.30;1.00;;;;;;5055053;28;20206;-84
2024/01/21 00:47:37;;;;;;;12.10;6.77;;;-1.30;1.00;;;;;;5051108;28;20559;-84
2024/01/21 00:50:03;;;;;;;9.40;6.10;;;-1.30;1.00;;;;;;5052092;28;20252;-82
2024/01/21 00:52:29;;;;;;;8.13;5.27;;;-1.20;1.00;;;;;;5041118;28;20231;-83
2024/01/21 00:54:54;;;;;;;10.33;6.90;;;-1.20;1.00;;;;;;5039300;28;20993;-83
2024/01/21 00:57:20;;;;;;;10.03;5.63;;;-1.20;1.00;;;;;;5033367;28;20193;-83
2024/01/21 00:59:46;;;;;;;12.90;7.07;;;-1.20;1.00;;;;;;5052428;28;20633;-84
2024/01/21 01:02:11;;;;;;;10.43;6.10;;;-1.20;1.00;;;;;;5051607;28;20432;-83
2024/01/21 01:04:37;;;;;;;10.00;5.50;;;-1.10;1.00;;;;;;5031297;28;20183;-83
2024/01/21 01:07:03;;;;;;;9.97;5.87;;;-1.10;1.00;;;;;;5049759;28;20601;-83
2024/01/21 01:09:28;;;;;;;9.97;6.37;;;-1.10;1.00;;;;;;5033579;28;20284;-84
2024/01/21 01:11:54;;;;;;;10.23;4.80;;;-1.10;1.00;;;;;;5042599;28;20567;-83
2024/01/21 01:14:20;;;;;;;8.97;5.23;;;-1.00;1.00;;;;;;5050887;28;20201;-82
2024/01/21 01:16:45;;;;;;;6.90;5.00;;;-1.00;1.00;;;;;;5039541;28;20190;-83
2024/01/21 01:19:11;;;;;;;8.00;5.33;;;-1.00;1.00;;;;;;5051304;28;20226;-84
2024/01/21 01:21:36;;;;;;;6.87;4.87;;;-1.00;1.00;;;;;;5050336;28;20564;-81
2024/01/21 01:24:02;;;;;;;8.03;5.23;;;-1.00;1.00;;;;;;5036069;28;20600;-83
2024/01/21 01:26:28;;;;;;;8.40;6.37;;;-1.00;1.00;;;;;;5051320;28;20564;-83
2024/01/21 01:28:53;;;;;;;8.50;5.00;;;-1.00;1.00;;;;;;5049391;28;20269;-83
2024/01/21 01:31:20;;;;;;;6.00;4.37;;;-1.00;1.00;;;;;;5044615;28;20189;-84
2024/01/21 01:33:46;;;;;;;8.05;5.47;;;-0.90;1.00;;;;;;5051221;28;20286;-82
2024/01/21 01:36:11;;;;;;;9.90;5.83;;;-0.90;1.00;;;;;;5058231;28;20257;-83
2024/01/21 01:38:37;;;;;;;6.73;4.53;;;-1.00;1.00;;;;;;5060493;28;20455;-81
2024/01/21 01:41:03;;;;;;;8.40;5.50;;;-1.00;1.00;;;;;;5060325;28;20178;-83
2024/01/21 01:43:28;;;;;;;7.13;4.30;;;-1.00;1.00;;;;;;5058857;28;20173;-83
2024/01/21 01:45:54;;;;;;;7.87;5.10;;;-0.90;1.00;;;;;;5058315;28;20663;-83
2024/01/21 01:48:22;;;;;;;8.87;4.83;;;-0.90;1.00;;;;;;5038479;28;20286;-83
2024/01/21 01:50:48;;;;;;;7.68;5.15;;;-0.90;1.00;;;;;;5044614;28;20190;-81
2024/01/21 01:53:14;;;;;;;8.60;4.60;;;-0.90;1.00;;;;;;5063726;28;20208;-83
2024/01/21 01:55:40;;;;;;;9.32;5.03;;;-0.90;1.00;;;;;;5055733;28;20210;-82
2024/01/21 01:58:06;;;;;;;10.13;5.10;;;-0.90;1.00;;;;;;5055244;28;20652;-83
2024/01/21 02:00:32;;;;;;;8.17;5.00;;;-0.90;1.00;;;;;;5054949;28;20443;-83
2024/01/21 02:02:58;;;;;;;7.47;4.20;;;-0.80;1.00;;;;;;5060374;28;20185;-84
2024/01/21 02:05:24;;;;;;;5.80;4.85;;;-0.80;1.00;;;;;;5058644;28;20463;-84
2024/01/21 02:07:49;;;;;;;9.07;5.87;;;-0.80;1.00;;;;;;5058284;28;20217;-84
2024/01/21 02:10:15;;;;;;;8.10;5.23;;;-0.80;1.00;;;;;;5065064;28;20185;-84
2024/01/21 02:12:42;;;;;;;9.77;5.17;;;-0.80;1.00;;;;;;5055635;28;20182;-83
2024/01/21 02:15:09;;;;;;;6.65;4.50;;;-0.80;1.00;;;;;;5063425;28;20581;-84
2024/01/21 02:17:34;;;;;;;8.15;3.65;;;-0.80;1.00;;;;;;5060577;28;20276;-84
2024/01/21 02:20:00;;;;;;;5.57;4.40;;;-0.80;1.00;;;;;;5060599;28;20182;-82
2024/01/21 02:22:26;;;;;;;10.37;5.00;;;-0.80;1.00;;;;;;5056779;28;20202;-84
2024/01/21 02:24:52;;;;;;;8.80;4.90;;;-0.80;1.00;;;;;;5053709;28;20221;-83
2024/01/21 02:27:17;;;;;;;7.63;4.27;;;-0.90;1.00;;;;;;5043150;28;20186;-84
2024/01/21 02:29:43;;;;;;;6.40;4.37;;;-0.90;1.00;;;;;;5041524;28;20186;-83
2024/01/21 02:32:08;;;;;;;5.90;4.43;;;-0.90;1.00;;;;;;5052707;28;20198;-83
2024/01/21 02:34:35;;;;;;;8.13;4.37;;;-0.90;99.90;;;;;;5053926;28;20172;-83
2024/01/21 02:37:00;;;;;;;9.32;4.68;;;-0.90;1.00;;;;;;5039505;28;20188;-83
2024/01/21 02:39:26;;;;;;;6.30;4.10;;;-1.00;99.90;;;;;;5048566;28;20630;-84
2024/01/21 02:41:51;;;;;;;6.50;4.43;;;-1.00;99.90;;;;;;5060766;28;20289;-84
2024/01/21 02:44:17;;;;;;;5.47;3.63;;;-1.10;99.90;;;;;;5063705;28;20198;-84
2024/01/21 02:46:43;;;;;;;7.00;4.20;;;-1.00;99.90;;;;;;5062393;28;20217;-83
2024/01/21 02:49:08;;;;;;;6.50;3.60;;;-1.10;99.90;;;;;;5044084;28;20194;-84
2024/01/21 02:51:34;;;;;;;8.77;5.17;;;-1.10;99.90;;;;;;5063966;28;20190;-84
2024/01/21 02:53:59;;;;;;;6.90;4.47;;;-1.10;99.90;;;;;;5063949;28;20190;-83
2024/01/21 02:56:28;;;;;;;6.67;4.03;;;-1.10;99.90;;;;;;5048277;28;20193;-83
2024/01/21 02:58:54;;;;;;;7.85;4.45;;;-1.10;99.90;;;;;;5057103;28;20264;-83
2024/01/21 03:01:19;;;;;;;5.67;3.90;;;-1.10;99.90;;;;;;5060881;28;20189;-84
2024/01/21 03:03:45;;;;;;;6.37;4.30;;;-1.10;99.90;;;;;;5059920;28;20209;-83
2024/01/21 03:06:11;;;;;;;6.17;3.40;;;-1.10;99.90;;;;;;5062355;28;20182;-85
2024/01/21 03:08:37;;;;;;;7.70;4.63;;;-1.10;99.90;;;;;;5053309;28;20202;-85
2024/01/21 03:11:03;;;;;;;6.87;4.33;;;-1.00;99.90;;;;;;5047387;28;20186;-87
2024/01/21 03:13:28;;;;;;;4.87;3.23;;;-1.00;99.90;;;;;;5064307;28;20201;-85
2024/01/21 03:15:55;;;;;;;8.70;4.47;;;-0.90;99.90;;;;;;5056430;28;20327;-85
2024/01/21 03:18:21;;;;;;;6.03;3.08;;;-0.90;99.90;;;;;;5053458;28;20209;-85
2024/01/21 03:20:47;;;;;;;5.43;4.00;;;-0.90;99.90;;;;;;5052580;28;20186;-84
2024/01/21 03:23:12;;;;;;;7.20;3.67;;;-0.90;99.90;;;;;;5067350;28;20178;-85
2024/01/21 03:25:38;;;;;;;5.67;4.10;;;-0.90;99.90;;;;;;5062580;28;20205;-85
2024/01/21 03:28:03;;;;;;;7.30;4.30;;;-0.90;99.90;;;;;;5062299;28;20590;-85
2024/01/21 03:30:29;;;;;;;6.40;3.80;;;-0.90;99.90;;;;;;5042979;28;20675;-85
2024/01/21 03:32:55;;;;;;;5.67;3.70;;;-0.80;99.90;;;;;;5056322;28;20436;-84
2024/01/21 03:35:20;;;;;;;7.23;4.30;;;-0.80;99.90;;;;;;5060245;28;20220;-86
2024/01/21 03:37:46;;;;;;;7.03;3.87;;;-0.80;99.90;;;;;;5061739;28;20209;-87
2024/01/21 03:40:11;;;;;;;4.73;3.67;;;-0.80;99.90;;;;;;5059211;28;20190;-86
2024/01/21 03:42:38;;;;;;;6.03;3.87;;;-0.80;99.90;;;;;;5061543;28;20697;-85
2024/01/21 03:45:03;;;;;;;4.75;3.72;;;-0.70;99.90;;;;;;5047685;28;20256;-85
2024/01/21 03:47:29;;;;;;;6.23;3.73;;;-0.70;99.90;;;;;;5060076;28;20705;-85
2024/01/21 03:49:55;;;;;;;4.70;3.53;;;-0.70;99.90;;;;;;5060096;28;20443;-86
2024/01/21 03:52:21;;;;;;;7.13;4.57;;;-0.70;99.90;;;;;;5060813;28;20265;-84
2024/01/21 03:54:46;;;;;;;6.03;4.13;;;-0.70;99.90;;;;;;5059512;28;20182;-83
2024/01/21 03:57:12;;;;;;;5.33;4.03;;;-0.70;99.90;;;;;;5059781;28;20436;-85
2024/01/21 03:59:40;;;;;;;6.70;4.03;;;-0.70;99.90;;;;;;5062132;28;20209;-84
2024/01/21 04:02:05;;;;;;;7.90;4.45;;;-0.70;99.90;;;;;;5061647;28;20221;-84
2024/01/21 04:04:31;;;;;;;7.17;4.17;;;-0.70;99.90;;;;;;5059843;28;20201;-82
2024/01/21 04:06:56;;;;;;;8.50;4.57;;;-0.70;99.90;;;;;;5060718;28;20194;-83
2024/01/21 04:09:23;;;;;;;7.73;4.70;;;-0.70;99.90;;;;;;5044503;28;20221;-84
2024/01/21 04:11:49;;;;;;;6.72;3.80;;;-0.70;99.90;;;;;;5062147;28;20174;-84
2024/01/21 04:14:15;;;;;;;6.13;4.18;;;-0.60;99.90;;;;;;5049436;28;20198;-84
2024/01/21 04:16:40;;;;;;;6.17;3.60;;;-0.60;99.90;;;;;;5059614;28;20186;-83
2024/01/21 04:19:07;;;;;;;8.10;4.27;;;-0.60;99.90;;;;;;5061213;28;20609;-83
2024/01/21 04:21:33;;;;;;;5.53;3.38;;;-0.60;99.90;;;;;;5060812;28;20205;-83
2024/01/21 04:23:59;;;;;;;6.87;3.67;;;-0.60;99.90;;;;;;5059786;28;20197;-84
2024/01/21 04:26:25;;;;;;;6.32;3.85;;;-0.50;99.90;;;;;;5060499;28;20686;-84
2024/01/21 04:28:50;;;;;;;9.00;4.33;;;-0.50;99.90;;;;;;5037880;28;20203;-83
2024/01/21 04:31:16;;;;;;;7.83;3.87;;;-0.50;99.90;;;;;;5051887;28;20523;-84
2024/01/21 04:33:41;;;;;;;7.73;4.10;;;-0.30;99.90;;;;;;5054857;28;20182;-83
2024/01/21 04:36:08;;;;;;;8.40;4.90;;;-0.30;99.90;;;;;;5061691;28;20190;-84
2024/01/21 04:38:34;;;;;;;7.85;4.40;;;-0.30;99.90;;;;;;5060345;28;20201;-83
2024/01/21 04:40:59;;;;;;;6.23;4.10;;;-0.30;99.90;;;;;;5059822;28;20190;-84
2024/01/21 04:43:25;;;;;;;7.87;4.13;;;-0.30;99.90;;;;;;5041859;28;20185;-84
2024/01/21 04:45:51;;;;;;;5.13;4.10;;;-0.30;99.90;;;;;;5059355;28;20254;-83
2024/01/21 04:48:16;;;;;;;6.90;4.67;;;-0.20;99.90;;;;;;5036676;28;20236;-84
2024/01/21 04:50:42;;;;;;;6.40;4.73;;;-0.20;99.90;;;;;;5033811;28;20250;-84
2024/01/21 04:53:07;;;;;;;11.30;5.50;;;-0.20;99.90;;;;;;5059238;28;20189;-82
2024/01/21 04:55:33;;;;;;;10.63;5.30;;;-0.10;99.90;;;;;;5058950;28;20180;-84
2024/01/21 04:57:58;;;;;;;7.27;4.30;;;-0.20;99.90;;;;;;5059290;28;20202;-83
2024/01/21 05:00:24;;;;;;;9.00;5.00;;;-0.20;99.90;;;;;;5043743;28;20184;-85
2024/01/21 05:02:49;;;;;;;9.20;6.03;;;-0.10;99.90;;;;;;5058399;28;20186;-84
2024/01/21 05:05:15;;;;;;;7.73;4.83;;;-0.10;99.90;;;;;;5038090;28;20271;-83
2024/01/21 05:07:41;;;;;;;9.15;4.22;;;0.00;99.90;;;;;;5052835;28;20202;-84
2024/01/21 05:10:07;;;;;;;7.13;3.90;;;0.00;99.90;;;;;;5054540;28;20182;-84
2024/01/21 05:12:32;;;;;;;6.90;3.93;;;0.10;99.90;;;;;;5059574;28;20181;-84
2024/01/21 05:14:58;;;;;;;5.30;3.77;;;0.10;99.90;;;;;;5057599;28;20444;-83
2024/01/21 05:17:23;;;;;;;4.73;3.50;;;0.10;99.90;;;;;;5037182;28;20189;-84
2024/01/21 05:19:49;;;;;;;5.90;4.17;;;0.30;99.90;;;;;;5047809;28;20209;-84
2024/01/21 05:22:14;;;;;;;5.97;3.43;;;0.30;99.90;;;;;;5048888;28;20181;-83
2024/01/21 05:24:40;;;;;;;6.40;3.80;;;0.40;99.90;;;;;;5056627;28;20262;-84
2024/01/21 05:27:06;;;;;;;5.37;2.80;;;0.40;99.90;;;;;;5041516;28;20190;-84
2024/01/21 05:29:31;;;;;;;9.13;3.90;;;0.40;99.90;;;;;;5056071;28;20263;-83
2024/01/21 05:31:57;;;;;;;6.30;3.60;;;0.40;99.90;;;;;;5059793;28;20651;-83
2024/01/21 05:34:22;;;;;;;5.20;3.40;;;0.30;99.90;;;;;;5061235;28;20249;-84
2024/01/21 05:36:48;;;;;;;6.43;3.87;;;0.30;99.90;;;;;;5061589;28;20201;-83
2024/01/21 05:39:14;;;;;;;11.60;4.95;;;0.30;99.90;;;;;;5037673;28;20634;-84
2024/01/21 05:41:39;;;;;;;4.87;3.30;;;0.30;99.90;;;;;;5060686;28;20189;-84
2024/01/21 05:44:05;;;;;;;7.17;4.10;;;0.30;99.90;;;;;;5058990;28;20206;-84
2024/01/21 05:46:31;;;;;;;8.20;3.50;;;0.30;99.90;;;;;;5053634;28;20197;-84
2024/01/21 05:48:56;;;;;;;6.43;3.60;;;0.30;99.90;;;;;;5044688;28;20234;-84
2024/01/21 05:51:22;;;;;;;6.17;3.43;;;0.40;99.90;;;;;;5036751;28;20214;-84
2024/01/21 05:53:47;;;;;;;5.20;3.57;;;0.40;99.90;;;;;;5059743;28;20217;-84
2024/01/21 05:56:17;;;;;;;4.93;3.00;;;0.60;99.90;;;;;;5060997;28;20277;-84
2024/01/21 05:58:42;;;;;;;5.75;3.67;;;0.70;99.90;;;;;;5060585;28;20680;-84
2024/01/21 06:01:08;;;;;;;92.23;33.23;;;0.80;99.90;;;;;;5038826;28;20318;-84
2024/01/21 06:03:33;;;;;;;113.07;36.60;;;0.90;99.90;;;;;;5052419;28;20274;-83
2024/01/21 06:05:59;;;;;;;95.17;34.40;;;0.90;99.90;;;;;;5061560;28;20178;-82
2024/01/21 06:08:25;;;;;;;47.47;19.30;;;1.00;99.90;;;;;;5060896;28;20229;-83
2024/01/21 06:10:50;;;;;;;85.90;37.37;;;1.00;99.90;;;;;;5061260;28;20189;-83
2024/01/21 06:13:16;;;;;;;78.23;38.20;;;1.10;99.90;;;;;;5059331;28;20611;-83
2024/01/21 06:15:42;;;;;;;12.18;6.55;;;1.20;99.90;;;;;;5060860;28;20182;-83
2024/01/21 06:18:07;;;;;;;46.53;23.90;;;1.20;99.90;;;;;;5057248;28;21016;-84
2024/01/21 06:20:42;;;;;;;10.23;5.20;;;1.30;99.90;;;;;;5124574;23;20777;-88
2024/01/21 06:23:10;;;;;;;7.20;4.38;;;1.40;99.90;;;;;;5043916;28;20185;-88
2024/01/21 06:25:46;;;;;;;6.45;4.70;;;1.60;99.90;;;;;;5054643;28;20259;-88
2024/01/21 06:28:12;;;;;;;7.07;4.70;;;1.70;99.90;;;;;;5056109;28;20225;-88
2024/01/21 06:30:38;;;;;;;8.47;5.50;;;1.80;99.90;;;;;;5045265;28;20230;-88
2024/01/21 06:33:06;;;;;;;7.60;6.13;;;2.00;99.90;;;;;;5035155;28;20954;-87
2024/01/21 06:35:35;;;;;;;10.05;5.50;;;2.00;99.90;;;;;;5028588;28;20243;-88
2024/01/21 06:38:03;;;;;;;8.13;5.10;;;2.10;99.90;;;;;;5032508;28;20306;-89
2024/01/21 06:40:40;;;;;;;7.38;3.85;;;2.20;99.90;;;;;;5033690;28;20488;-88
2024/01/21 06:43:11;;;;;;;7.30;4.50;;;2.20;99.90;;;;;;5035266;28;20193;-88
2024/01/21 06:45:37;;;;;;;7.50;5.30;;;2.30;99.90;;;;;;5030174;28;20216;-88
2024/01/21 06:48:06;;;;;;;6.30;4.30;;;2.30;99.90;;;;;;5034569;28;20190;-88
2024/01/21 06:50:35;;;;;;;8.32;4.60;;;2.30;99.90;;;;;;5025115;28;20264;-88
2024/01/21 06:53:03;;;;;;;9.13;4.95;;;2.30;99.90;;;;;;5034404;28;20181;-87
2024/01/21 06:55:29;;;;;;;10.30;4.88;;;2.40;99.90;;;;;;5034015;28;20557;-87
2024/01/21 06:57:57;;;;;;;7.27;5.23;;;2.40;99.90;;;;;;5052298;28;20264;-87
2024/01/21 07:00:31;;;;;;;8.60;5.10;;;2.40;99.90;;;;;;5035621;28;20206;-87
2024/01/21 07:03:00;;;;;;;10.45;4.60;;;2.40;99.90;;;;;;5035228;28;20196;-88
2024/01/21 07:05:28;;;;;;;7.35;4.63;;;2.40;99.90;;;;;;5036345;28;20201;-88
2024/01/21 07:08:02;;;;;;;8.50;5.40;;;2.40;99.90;;;;;;5034889;28;20186;-88
2024/01/21 07:10:48;;;;;;;6.78;4.45;;;2.40;99.90;;;;;;5036663;28;20205;-88
2024/01/21 07:13:19;;;;;;;6.05;4.28;;;2.40;99.90;;;;;;5053929;28;20241;-87
2024/01/21 07:16:01;;;;;;;6.85;4.70;;;2.40;99.90;;;;;;5054781;28;20181;-88
2024/01/21 07:18:26;;;;;;;6.55;4.38;;;2.50;99.90;;;;;;5025704;28;20236;-88
2024/01/21 07:20:55;;;;;;;5.13;3.90;;;2.50;99.90;;;;;;5036705;28;20695;-88
2024/01/21 07:23:20;;;;;;;6.00;3.40;;;2.60;99.90;;;;;;5054599;28;20433;-89
2024/01/21 07:25:49;;;;;;;4.37;3.20;;;2.70;99.90;;;;;;5036178;28;20232;-88
2024/01/21 07:28:18;;;;;;;5.60;3.72;;;2.90;99.90;;;;;;5034382;28;20175;-88
2024/01/21 07:30:46;;;;;;;5.05;3.95;;;3.00;99.90;;;;;;5054036;28;20574;-88
2024/01/21 07:33:12;;;;;;;6.57;4.70;;;3.20;99.90;;;;;;5053219;28;20260;-88
2024/01/21 07:35:40;;;;;;;6.47;4.50;;;3.30;99.90;;;;;;5033982;28;20187;-89
2024/01/21 07:38:12;;;;;;;7.70;4.18;;;3.40;99.90;;;;;;5034023;28;20682;-89
2024/01/21 07:40:43;;;;;;;6.35;4.47;;;3.40;99.90;;;;;;5026454;28;20588;-88
2024/01/21 07:43:17;;;;;;;8.18;4.38;;;3.50;99.90;;;;;;5035847;28;20213;-88
2024/01/21 07:46:05;;;;;;;4.60;3.45;;;3.60;99.90;;;;;;5030786;28;20210;-89
2024/01/21 07:48:36;;;;;;;4.50;3.45;;;3.60;99.90;;;;;;5035756;28;20279;-89
2024/01/21 07:51:07;;;;;;;7.15;4.07;;;3.60;99.90;;;;;;5029791;28;20301;-88
2024/01/21 07:53:39;;;;;;;5.88;4.13;;;3.70;99.90;;;;;;5030759;28;20190;-88
2024/01/21 07:56:13;;;;;;;8.68;4.13;;;3.70;99.90;;;;;;5049596;28;20268;-89
2024/01/21 07:58:53;;;;;;;5.65;3.85;;;3.80;99.90;;;;;;5035078;28;20182;-89
2024/01/21 08:01:27;;;;;;;7.65;3.88;;;3.80;99.90;;;;;;5031010;28;20205;-89
2024/01/21 08:04:04;;;;;;;6.85;4.03;;;3.90;99.90;;;;;;5026807;28;20210;-88
2024/01/21 08:06:32;;;;;;;10.95;3.70;;;3.90;99.90;;;;;;5030765;28;20735;-89
2024/01/21 08:09:18;;;;;;;6.53;3.40;;;4.00;99.90;;;;;;5032313;28;20178;-89
2024/01/21 08:11:49;;;;;;;8.45;4.55;;;4.00;99.90;;;;;;5057373;23;20736;-88
2024/01/21 08:14:20;;;;;;;8.05;4.03;;;4.00;99.90;;;;;;5049098;28;20652;-89
2024/01/21 08:17:20;;;;;;;5.95;3.30;;;4.00;99.90;;;;;;5021987;28;20193;-89
2024/01/21 08:19:48;;;;;;;5.82;3.90;;;4.00;99.90;;;;;;5027893;28;20186;-89
2024/01/21 08:22:26;;;;;;;6.80;4.07;;;4.00;99.90;;;;;;4999998;28;20273;-90
2024/01/21 08:24:54;;;;;;;6.90;4.78;;;4.00;99.90;;;;;;5009682;28;20211;-91
2024/01/21 08:27:28;;;;;;;8.65;4.43;;;3.90;99.90;;;;;;5031698;28;20229;-88
2024/01/21 08:29:59;;;;;;;7.63;4.75;;;3.90;99.90;;;;;;5006884;28;20202;-89
2024/01/21 08:32:35;;;;;;;8.38;4.40;;;3.80;99.90;;;;;;5011551;28;20217;-89
2024/01/21 08:35:06;;;;;;;9.70;5.30;;;3.80;99.90;;;;;;5014798;28;20629;-88
2024/01/21 08:37:37;;;;;;;5.78;4.40;;;3.80;99.90;;;;;;5013686;28;20206;-89
2024/01/21 08:40:09;;;;;;;9.77;4.78;;;3.80;99.90;;;;;;5017500;28;20218;-88
2024/01/21 08:42:46;;;;;;;6.53;4.93;;;3.90;99.90;;;;;;5028424;28;20195;-89
2024/01/21 08:45:17;;;;;;;8.23;4.88;;;3.90;99.90;;;;;;5013011;28;20214;-88
2024/01/21 08:47:48;;;;;;;5.68;4.15;;;4.00;99.90;;;;;;5023574;28;20202;-88
2024/01/21 08:50:31;;;;;;;7.13;4.43;;;4.10;99.90;;;;;;5011249;28;20222;-88
2024/01/21 08:55:53;;;;;;;7.05;4.43;;;4.20;99.90;;;;;;5033070;28;20170;-89
2024/01/21 08:58:24;;;;;;;6.30;4.30;;;4.50;99.90;;;;;;5012219;28;20189;-90
2024/01/21 09:00:55;;;;;;;8.00;4.45;;;4.70;99.90;;;;;;5034843;28;20215;-89
2024/01/21 09:03:28;;;;;;;8.43;5.35;;;4.80;99.90;;;;;;5007074;28;20253;-89
2024/01/21 09:06:02;;;;;;;8.30;4.82;;;5.10;99.90;;;;;;5028986;28;20206;-89
2024/01/21 09:08:28;;;;;;;8.40;5.05;;;5.40;99.90;;;;;;5011984;28;20244;-89
2024/01/21 09:11:07;;;;;;;7.90;5.03;;;5.90;99.90;;;;;;5012276;28;20747;-89
2024/01/21 09:13:37;;;;;;;5.88;4.82;;;6.00;99.90;;;;;;5021134;28;20439;-88
2024/01/21 09:16:03;;;;;;;9.65;6.65;;;6.10;99.90;;;;;;5005164;28;20180;-89
2024/01/21 09:18:30;;;;;;;10.33;6.00;;;6.40;99.90;;;;;;5009665;28;20692;-90
2024/01/21 09:20:56;;;;;;;8.80;4.70;;;6.80;99.90;;;;;;5032055;28;20199;-89
2024/01/21 09:23:26;;;;;;;7.13;5.03;;;7.50;99.90;;;;;;5026054;28;20911;-89
2024/01/21 09:25:52;;;;;;;7.20;4.50;;;8.00;99.90;;;;;;5030991;28;20540;-89
2024/01/21 09:28:26;;;;;;;6.63;4.23;;;8.10;99.90;;;;;;5013586;28;20510;-89
2024/01/21 09:30:54;;;;;;;7.30;4.63;;;8.00;99.90;;;;;;5011796;28;20202;-89
2024/01/21 09:33:20;;;;;;;8.57;5.13;;;8.00;99.90;;;;;;5009982;28;21032;-89
2024/01/21 09:35:46;;;;;;;6.77;4.40;;;7.90;99.90;;;;;;5012696;28;20525;-89
2024/01/21 09:38:13;;;;;;;6.83;3.90;;;7.80;99.90;;;;;;5013005;28;20269;-89
2024/01/21 09:40:43;;;;;;;5.30;3.80;;;7.60;99.90;;;;;;5012396;28;20588;-90
2024/01/21 09:43:08;;;;;;;5.77;3.93;;;7.50;99.90;;;;;;5015133;28;20447;-88
2024/01/21 09:45:37;;;;;;;6.20;3.67;;;7.50;99.90;;;;;;5030049;28;20465;-90
2024/01/21 09:48:07;;;;;;;5.30;3.50;;;7.50;99.90;;;;;;5007582;28;20180;-89
2024/01/21 09:50:37;;;;;;;5.77;3.23;;;7.50;99.90;;;;;;5016044;28;20512;-89
2024/01/21 09:53:02;;;;;;;5.80;3.40;;;7.60;99.90;;;;;;5046535;28;20436;-90
2024/01/21 09:55:28;;;;;;;5.00;3.47;;;7.80;99.90;;;;;;5013887;28;20468;-88
2024/01/21 09:58:02;;;;;;;5.80;3.93;;;7.80;99.90;;;;;;5017681;28;20217;-90
2024/01/21 10:00:35;;;;;;;5.40;3.93;;;7.80;99.90;;;;;;5032399;28;20253;-90
2024/01/21 10:03:03;;;;;;;5.60;3.60;;;7.70;99.90;;;;;;5015340;28;20444;-89
2024/01/21 10:05:28;;;;;;;5.63;3.57;;;7.60;99.90;;;;;;5015734;28;20510;-90
2024/01/21 10:07:55;;;;;;;6.17;4.10;;;7.60;99.90;;;;;;5011081;28;20437;-89
2024/01/21 10:10:20;;;;;;;5.37;3.77;;;7.60;99.90;;;;;;5016218;28;20218;-89
2024/01/21 10:12:46;;;;;;;3.47;2.87;;;7.60;99.90;;;;;;5011637;28;20993;-89
2024/01/21 10:15:14;;;;;;;5.90;4.00;;;7.50;99.90;;;;;;5032301;28;20241;-90
2024/01/21 10:17:43;;;;;;;6.90;4.13;;;7.60;99.90;;;;;;5041047;28;20186;-90
2024/01/21 10:20:17;;;;;;;5.97;3.60;;;7.50;99.90;;;;;;5015316;28;20506;-89
2024/01/21 10:22:44;;;;;;;5.53;3.70;;;7.50;99.90;;;;;;5013372;28;20436;-90
2024/01/21 10:25:15;;;;;;;5.47;3.73;;;7.60;99.90;;;;;;5014505;28;20468;-89
2024/01/21 10:27:44;;;;;;;6.60;4.47;;;7.60;99.90;;;;;;5036371;28;20924;-90
2024/01/21 10:30:12;;;;;;;8.17;4.90;;;7.60;99.90;;;;;;5012965;28;20450;-89
2024/01/21 10:32:38;;;;;;;4.97;3.50;;;7.70;99.90;;;;;;5035993;28;20966;-90
2024/01/21 10:35:06;;;;;;;5.50;3.90;;;7.60;99.90;;;;;;5045230;28;20436;-89
2024/01/21 10:37:41;;;;;;;5.33;3.77;;;7.60;99.90;;;;;;5015088;28;20317;-90
2024/01/21 10:40:14;;;;;;;5.63;4.33;;;7.60;99.90;;;;;;5023380;28;20473;-89
2024/01/21 10:42:42;;;;;;;4.70;4.00;;;7.50;99.90;;;;;;5008111;28;20947;-89
2024/01/21 10:45:11;;;;;;;5.73;3.90;;;7.40;99.90;;;;;;5011295;28;20909;-88
2024/01/21 10:47:43;;;;;;;5.70;3.93;;;7.40;99.90;;;;;;5031486;28;20472;-89
2024/01/21 10:50:13;;;;;;;8.00;4.47;;;7.30;99.90;;;;;;5019877;28;20461;-89
2024/01/21 10:52:48;;;;;;;5.80;4.47;;;7.30;99.90;;;;;;5008281;28;20888;-89
2024/01/21 10:55:13;;;;;;;6.23;3.70;;;7.30;99.90;;;;;;5015839;28;20441;-88
2024/01/21 10:57:52;;;;;;;5.53;4.60;;;7.30;99.90;;;;;;5014054;28;20433;-90
2024/01/21 11:00:18;;;;;;;8.83;3.60;;;7.30;99.90;;;;;;5032976;28;20226;-89
2024/01/21 11:03:31;;;;;;;7.40;4.13;;;7.40;99.90;;;;;;5029610;28;20433;-89
2024/01/21 11:06:03;;;;;;;5.57;3.80;;;7.30;99.90;;;;;;5032652;28;21047;-89
2024/01/21 11:08:29;;;;;;;5.73;4.20;;;7.30;99.90;;;;;;5014842;28;20448;-89
2024/01/21 11:11:20;;;;;;;6.50;4.40;;;7.30;99.90;;;;;;5008962;28;21077;-90
2024/01/21 11:13:51;;;;;;;7.00;3.50;;;7.40;99.90;;;;;;5009225;28;20869;-90
2024/01/21 11:16:28;;;;;;;4.70;3.90;;;7.60;99.90;;;;;;5014034;28;20804;-89
2024/01/21 11:19:04;;;;;;;7.00;4.60;;;7.80;99.90;;;;;;5012390;28;20441;-88
2024/01/21 11:21:59;;;;;;;5.63;4.30;;;8.00;99.90;;;;;;5012771;28;20457;-89
2024/01/21 11:24:59;;;;;;;7.53;4.90;;;8.10;99.90;;;;;;5013883;28;20569;-85
2024/01/21 11:27:45;;;;;;;9.20;4.60;;;8.10;99.90;;;;;;5029987;28;20425;-89
2024/01/21 11:30:19;;;;;;;7.43;4.40;;;8.10;99.90;;;;;;5029434;28;20812;-88
2024/01/21 11:32:44;;;;;;;3.80;3.40;;;8.30;99.90;;;;;;5026778;28;20445;-89
2024/01/21 11:35:20;;;;;;;8.33;4.00;;;8.40;99.90;;;;;;5008292;28;20548;-89
2024/01/21 11:38:03;;;;;;;8.00;4.30;;;8.40;99.90;;;;;;5012486;28;20633;-88
2024/01/21 11:41:05;;;;;;;5.50;3.70;;;8.50;99.90;;;;;;5030608;28;20452;-89
2024/01/21 11:43:40;;;;;;;9.10;3.90;;;8.50;99.90;;;;;;5011662;28;20507;-89
2024/01/21 11:46:30;;;;;;;7.73;3.40;;;8.60;99.90;;;;;;5027591;28;20891;-90
2024/01/21 11:48:59;;;;;;;5.20;4.20;;;8.60;99.90;;;;;;5009936;28;20503;-89
2024/01/21 11:51:34;;;;;;;5.67;3.50;;;8.70;99.90;;;;;;5011973;28;20832;-89
2024/01/21 11:54:07;;;;;;;5.17;4.00;;;8.80;99.90;;;;;;5013874;28;20429;-89
2024/01/21 11:59:42;;;;;;;7.10;4.80;;;8.90;99.90;;;;;;4987298;28;20440;-90
2024/01/21 12:02:22;;;;;;;5.37;3.43;;;8.90;99.90;;;;;;5011423;28;20433;-90
2024/01/21 12:08:29;;;;;;;9.60;4.90;;;9.10;99.90;;;;;;5019388;28;20919;-85
2024/01/21 12:11:04;;;;;;;6.93;3.90;;;9.30;99.90;;;;;;5009521;28;20472;-89
2024/01/21 12:13:32;;;;;;;5.97;4.50;;;9.30;99.90;;;;;;5016222;28;20425;-89
2024/01/21 12:16:33;;;;;;;5.83;4.20;;;9.30;99.90;;;;;;5015509;28;20444;-90
2024/01/21 12:22:21;;;;;;;6.53;4.80;;;9.30;99.90;;;;;;5024489;28;20513;-88
2024/01/21 12:24:54;;;;;;;6.97;4.70;;;9.30;99.90;;;;;;5020684;28;20465;-88
2024/01/21 12:27:26;;;;;;;9.23;3.97;;;9.40;99.90;;;;;;5032184;28;20428;-88
2024/01/21 12:29:58;;;;;;;5.33;4.00;;;9.60;99.90;;;;;;5033266;28;20947;-86
2024/01/21 12:32:40;;;;;;;4.93;3.83;;;10.10;99.90;;;;;;5015868;28;20455;-86
2024/01/21 12:35:06;;;;;;;6.60;4.70;;;10.50;99.90;;;;;;5045755;23;20472;-85
2024/01/21 12:37:32;;;;;;;7.67;4.67;;;10.60;99.90;;;;;;5067361;28;20408;-86
2024/01/21 12:40:00;;;;;;;7.00;4.50;;;10.70;99.90;;;;;;5041738;28;20420;-85
2024/01/21 12:42:26;;;;;;;8.30;5.33;;;10.90;99.90;;;;;;5049896;28;20174;-85
2024/01/21 12:44:52;;;;;;;5.70;4.07;;;10.90;99.90;;;;;;5069339;28;20770;-85
2024/01/21 12:47:19;;;;;;;6.27;4.13;;;10.80;99.90;;;;;;5042958;28;20997;-85
2024/01/21 12:49:44;;;;;;;6.07;4.40;;;10.70;99.90;;;;;;5058499;28;20190;-84
2024/01/21 12:52:10;;;;;;;5.47;4.60;;;10.60;99.90;;;;;;5049496;28;20456;-84
2024/01/21 12:54:35;;;;;;;6.47;4.73;;;10.60;99.90;;;;;;5055490;28;20181;-85
2024/01/21 12:57:03;;;;;;;6.00;4.37;;;10.50;99.90;;;;;;5052228;28;20557;-85
2024/01/21 12:59:28;;;;;;;5.53;4.07;;;10.40;99.90;;;;;;5035109;28;20201;-84
2024/01/21 13:01:54;;;;;;;5.33;4.10;;;10.40;99.90;;;;;;5053351;28;20910;-85
2024/01/21 13:04:21;;;;;;;7.13;4.33;;;10.40;99.90;;;;;;5033805;28;20210;-84
2024/01/21 13:06:47;;;;;;;6.00;4.17;;;10.40;99.90;;;;;;5023562;28;20229;-85
2024/01/21 13:09:13;;;;;;;7.80;4.50;;;10.30;99.90;;;;;;5041871;28;20437;-84
2024/01/21 13:11:38;;;;;;;5.17;3.90;;;10.30;99.90;;;;;;5043440;28;20181;-85
2024/01/21 13:14:04;;;;;;;5.90;4.50;;;10.30;99.90;;;;;;5037974;28;20197;-86